Time;durP1;ratioP1;P1;durP2;ratioP2;P2;SDS_P1;SDS_P2;PMS_P1;PMS_P2;Temp;Humidity;BMP_temperature;BMP_pressure;BME280_temperature;BME280_humidity;BME280_pressure;Samples;Min_cycle;Max_cycle;Signal;HPM_P1;HPM_P2
2021/10/17 00:00:10;;;;;;;1999.90;999.90;;;;;;;6.07;48.10;101616.69;5068691;27;99185;-71
2021/10/17 00:02:41;;;;;;;1999.90;999.90;;;;;;;6.06;47.91;101614.88;5067107;27;96859;-71
2021/10/17 00:05:09;;;;;;;1999.90;999.90;;;;;;;6.05;48.23;101610.41;5066577;27;96824;-71
2021/10/17 00:07:42;;;;;;;1999.90;999.90;;;;;;;6.06;48.33;101613.97;5064641;27;99594;-72
2021/10/17 00:10:14;;;;;;;1999.90;999.90;;;;;;;6.05;48.14;101614.81;5066110;27;96943;-72
2021/10/17 00:12:42;;;;;;;1999.90;999.90;;;;;;;6.06;48.48;101609.59;5063398;27;96732;-72
2021/10/17 00:15:11;;;;;;;1999.90;999.90;;;;;;;6.07;48.29;101613.13;5066043;27;96779;-72
2021/10/17 00:17:40;;;;;;;1999.90;999.90;;;;;;;6.05;48.49;101613.06;5061834;27;96594;-70
2021/10/17 00:20:09;;;;;;;1999.90;999.90;;;;;;;6.05;48.09;101610.41;5044485;27;99149;-73
2021/10/17 00:22:37;;;;;;;1999.90;999.90;;;;;;;6.06;48.53;101611.34;5062332;27;98532;-72
2021/10/17 00:25:06;;;;;;;1999.90;999.90;;;;;;;6.06;48.07;101619.25;5060513;27;97079;-72
2021/10/17 00:27:35;;;;;;;1999.90;999.90;;;;;;;6.06;48.12;101619.25;5062163;27;100339;-71
2021/10/17 00:30:05;;;;;;;1999.90;999.90;;;;;;;6.02;48.14;101618.19;5048451;27;102758;-71
2021/10/17 00:32:33;;;;;;;1999.90;999.90;;;;;;;6.02;48.20;101614.63;5049888;27;97593;-72
2021/10/17 00:35:04;;;;;;;1999.90;999.90;;;;;;;6.01;48.04;101616.34;5050642;27;98005;-71
2021/10/17 00:37:32;;;;;;;1999.90;999.90;;;;;;;5.99;48.47;101611.84;5050934;27;99661;-71
2021/10/17 00:40:01;;;;;;;1999.90;999.90;;;;;;;5.97;48.50;101611.78;5066905;27;97005;-71
2021/10/17 00:42:29;;;;;;;1999.90;999.90;;;;;;;5.98;48.26;101612.66;5064919;27;97181;-73
2021/10/17 00:45:01;;;;;;;1999.90;999.90;;;;;;;5.95;48.35;101610.78;5063583;27;97091;-72
2021/10/17 00:47:29;;;;;;;1999.90;999.90;;;;;;;5.94;48.53;101602.78;5044754;27;98602;-71
2021/10/17 00:49:56;;;;;;;1999.90;999.90;;;;;;;5.92;48.25;101610.59;5054414;27;99001;-71
2021/10/17 00:52:24;;;;;;;1999.90;999.90;;;;;;;5.89;48.23;101602.50;5069928;27;97664;-73
2021/10/17 00:54:52;;;;;;;1999.90;999.90;;;;;;;5.89;48.60;101610.44;5068098;27;97214;-71
2021/10/17 00:57:20;;;;;;;1999.90;999.90;;;;;;;5.86;48.16;101605.00;5064222;27;97508;-71
2021/10/17 00:59:49;;;;;;;1999.90;999.90;;;;;;;5.82;48.29;101603.03;5058109;27;99343;-70
2021/10/17 01:02:18;;;;;;;1999.90;999.90;;;;;;;5.82;48.10;101600.38;5048020;27;96658;-73
2021/10/17 01:04:47;;;;;;;1999.90;999.90;;;;;;;5.79;48.37;101594.94;5061196;27;98572;-70
2021/10/17 01:07:15;;;;;;;1999.90;999.90;;;;;;;5.76;48.29;101589.47;5045986;27;99117;-73
2021/10/17 01:09:42;;;;;;;1999.90;999.90;;;;;;;5.76;48.37;101591.19;5056112;27;99904;-73
2021/10/17 01:12:15;;;;;;;1999.90;999.90;;;;;;;5.74;48.33;101593.78;5042884;27;97106;-71
2021/10/17 01:14:43;;;;;;;1999.90;999.90;;;;;;;5.74;48.30;101588.50;5048267;27;96855;-71
2021/10/17 01:17:11;;;;;;;1999.90;999.90;;;;;;;5.73;48.41;101578.75;5039982;27;99320;-71
2021/10/17 01:19:47;;;;;;;1999.90;999.90;;;;;;;5.69;48.40;101583.78;5044062;27;99380;-71
2021/10/17 01:22:19;;;;;;;1999.90;999.90;;;;;;;5.65;48.33;101576.56;5047741;27;96837;-73
2021/10/17 01:24:47;;;;;;;1999.90;999.90;;;;;;;5.60;48.40;101578.94;5043393;27;96825;-71
2021/10/17 01:27:14;;;;;;;1999.90;999.90;;;;;;;5.58;48.67;101575.31;5046919;27;99614;-71
2021/10/17 01:29:42;;;;;;;1999.90;999.90;;;;;;;5.54;48.55;101570.66;5051658;27;101380;-72
2021/10/17 01:32:10;;;;;;;1999.90;999.90;;;;;;;5.48;48.43;101561.53;5051369;27;97320;-73
2021/10/17 01:34:38;;;;;;;1999.90;999.90;;;;;;;5.43;48.52;101560.38;5046553;27;96885;-71
2021/10/17 01:37:07;;;;;;;1999.90;999.90;;;;;;;5.39;48.53;101554.03;5054734;27;97696;-71
2021/10/17 01:39:35;;;;;;;1999.90;999.90;;;;;;;5.35;48.70;101557.31;5059991;27;98024;-72
2021/10/17 01:42:03;;;;;;;1999.90;999.90;;;;;;;5.30;48.57;101553.53;5047224;27;97409;-74
2021/10/17 01:44:40;;;;;;;1999.90;999.90;;;;;;;5.27;48.69;101560.34;5044267;27;97059;-71
2021/10/17 01:47:09;;;;;;;1999.90;999.90;;;;;;;5.18;48.70;101560.75;5062862;27;98750;-69
2021/10/17 01:49:37;;;;;;;1999.90;999.90;;;;;;;5.14;48.84;101559.69;5047277;27;99586;-72
2021/10/17 01:52:08;;;;;;;1999.90;999.90;;;;;;;5.11;48.77;101562.16;5037412;27;97646;-71
2021/10/17 01:54:42;;;;;;;1999.90;999.90;;;;;;;5.10;48.98;101557.69;5047401;27;97756;-72
2021/10/17 01:57:14;;;;;;;1999.90;999.90;;;;;;;5.06;48.92;101560.97;5060591;27;99296;-71
2021/10/17 01:59:42;;;;;;;1999.90;999.90;;;;;;;5.05;48.94;101559.19;5043850;27;100451;-72
2021/10/17 02:02:22;;;;;;;1999.90;999.90;;;;;;;5.02;48.87;101559.03;5059837;27;96849;-71
2021/10/17 02:04:50;;;;;;;1999.90;999.90;;;;;;;4.99;48.80;101560.56;5042606;27;98195;-73
2021/10/17 02:07:19;;;;;;;1999.90;999.90;;;;;;;4.96;49.05;101563.91;5043099;27;99434;-73
2021/10/17 02:09:47;;;;;;;1999.90;999.90;;;;;;;4.93;49.15;101558.47;5061939;27;97571;-71
2021/10/17 02:12:15;;;;;;;1999.90;999.90;;;;;;;4.92;49.10;101563.63;5059852;27;96874;-73
2021/10/17 02:14:43;;;;;;;1999.90;999.90;;;;;;;4.89;49.14;101566.13;5039200;27;97330;-71
2021/10/17 02:17:11;;;;;;;1999.90;999.90;;;;;;;4.89;49.16;101560.84;5058707;27;99145;-71
2021/10/17 02:19:39;;;;;;;1999.90;999.90;;;;;;;4.88;49.19;101554.66;5041273;27;101048;-74
2021/10/17 02:22:07;;;;;;;1999.90;999.90;;;;;;;4.90;49.25;101560.03;5060495;27;97496;-73
2021/10/17 02:24:36;;;;;;;1999.90;999.90;;;;;;;4.89;49.06;101555.56;5063263;27;97481;-71
2021/10/17 02:27:04;;;;;;;1999.90;999.90;;;;;;;4.89;49.20;101556.47;5045303;27;100657;-72
2021/10/17 02:29:36;;;;;;;1999.90;999.90;;;;;;;4.86;49.27;101558.03;5058960;27;97715;-72
2021/10/17 02:32:23;;;;;;;1999.90;999.90;;;;;;;4.82;49.17;101551.69;5042238;27;96914;-71
2021/10/17 02:34:58;;;;;;;1999.90;999.90;;;;;;;4.81;49.42;101557.75;5045690;27;97601;-71
2021/10/17 02:37:27;;;;;;;1999.90;999.90;;;;;;;4.77;49.24;101566.31;5039090;27;99252;-72
2021/10/17 02:39:56;;;;;;;1999.90;999.90;;;;;;;4.72;49.38;101559.88;5040159;27;99299;-71
2021/10/17 02:42:24;;;;;;;1999.90;999.90;;;;;;;4.68;49.36;101564.91;5039366;27;97219;-72
2021/10/17 02:44:52;;;;;;;1999.90;999.90;;;;;;;4.63;49.47;101566.34;5041555;27;97295;-72
2021/10/17 02:47:20;;;;;;;1999.90;999.90;;;;;;;4.56;49.47;101556.28;5038701;27;99454;-72
2021/10/17 02:49:48;;;;;;;1999.90;999.90;;;;;;;4.53;49.50;101558.75;5045062;27;99961;-69
2021/10/17 02:52:18;;;;;;;1999.90;999.90;;;;;;;4.48;49.42;101554.94;5058959;27;96870;-71
2021/10/17 02:54:46;;;;;;;1999.90;999.90;;;;;;;4.45;49.54;101563.56;5041419;27;98452;-71
2021/10/17 02:57:16;;;;;;;1999.90;999.90;;;;;;;4.45;49.49;101549.47;5044168;27;100666;-71
2021/10/17 02:59:44;;;;;;;1999.90;999.90;;;;;;;4.43;49.69;101545.84;5046938;27;100181;-71
2021/10/17 03:02:15;;;;;;;1999.90;999.90;;;;;;;4.43;49.56;101548.47;5040352;27;96742;-70
2021/10/17 03:04:43;;;;;;;1999.90;999.90;;;;;;;4.44;49.54;101542.41;5042664;27;96851;-72
2021/10/17 03:07:11;;;;;;;1999.90;999.90;;;;;;;4.42;49.59;101544.06;5046022;27;99238;-71
2021/10/17 03:09:49;;;;;;;1999.90;999.90;;;;;;;4.43;49.77;101540.56;5057076;27;97453;-72
2021/10/17 03:12:19;;;;;;;1999.90;999.90;;;;;;;4.40;49.56;101535.16;5063178;27;96848;-71
2021/10/17 03:14:49;;;;;;;1999.90;999.90;;;;;;;4.41;49.81;101536.97;5046158;27;97789;-73
2021/10/17 03:17:16;;;;;;;1999.90;999.90;;;;;;;4.41;49.83;101547.50;5046032;27;99414;-74
2021/10/17 03:19:44;;;;;;;1999.90;999.90;;;;;;;4.40;49.69;101540.41;5064912;27;100057;-71
2021/10/17 03:22:12;;;;;;;1999.90;999.90;;;;;;;4.38;49.84;101542.97;5046623;27;96815;-70
2021/10/17 03:24:40;;;;;;;1999.90;999.90;;;;;;;4.36;49.86;101543.69;5055626;27;97111;-76
2021/10/17 03:27:08;;;;;;;1999.90;999.90;;;;;;;4.34;49.90;101537.41;5059231;27;97761;-73
2021/10/17 03:29:41;;;;;;;1999.90;999.90;;;;;;;4.34;49.89;101545.31;5042424;27;100502;-73
2021/10/17 03:32:10;;;;;;;1999.90;999.90;;;;;;;4.32;49.76;101537.31;5048113;27;97388;-73
2021/10/17 03:34:38;;;;;;;1999.90;999.90;;;;;;;4.32;49.88;101537.31;5046217;27;97344;-70
2021/10/17 03:37:09;;;;;;;1999.90;999.90;;;;;;;4.31;49.96;101546.06;5069291;27;97831;-70
2021/10/17 03:39:37;;;;;;;1999.90;999.90;;;;;;;4.31;50.04;101550.41;5042794;27;99089;-71
2021/10/17 03:42:05;;;;;;;1999.90;999.90;;;;;;;4.30;50.07;101544.22;5049926;27;96670;-71
2021/10/17 03:44:33;;;;;;;1999.90;999.90;;;;;;;4.32;50.03;101544.34;5069878;27;97442;-71
2021/10/17 03:47:02;;;;;;;1999.90;999.90;;;;;;;4.33;49.81;101538.25;5049947;27;100742;-73
2021/10/17 03:49:31;;;;;;;1999.90;999.90;;;;;;;4.35;50.14;101547.16;5064983;27;100573;-70
2021/10/17 03:52:00;;;;;;;1999.90;999.90;;;;;;;4.35;50.02;101542.81;5046228;27;96770;-71
2021/10/17 03:54:28;;;;;;;1999.90;999.90;;;;;;;4.38;49.80;101542.03;5063555;27;96829;-71
2021/10/17 03:56:56;;;;;;;1999.90;999.90;;;;;;;4.39;49.59;101543.88;5061775;27;99076;-76
2021/10/17 03:59:23;;;;;;;1999.90;999.90;;;;;;;4.40;49.89;101535.16;5061870;27;99834;-73
2021/10/17 04:01:51;;;;;;;1999.90;999.90;;;;;;;4.40;50.01;101540.41;5045165;27;96962;-74
2021/10/17 04:04:22;;;;;;;1999.90;999.90;;;;;;;4.41;49.83;101536.97;5076128;27;96852;-71
2021/10/17 04:06:49;;;;;;;1999.90;999.90;;;;;;;4.42;50.05;101533.50;5044935;27;99257;-74
2021/10/17 04:09:24;;;;;;;1999.90;999.90;;;;;;;4.45;49.95;101533.66;5048560;27;99288;-71
2021/10/17 04:11:52;;;;;;;1999.90;999.90;;;;;;;4.45;50.03;101531.03;5065311;27;96653;-70
2021/10/17 04:14:19;;;;;;;1999.90;999.90;;;;;;;4.48;49.82;101529.47;5044434;27;97030;-73
2021/10/17 04:16:47;;;;;;;1999.90;999.90;;;;;;;4.50;49.97;101534.88;5049863;27;98963;-74
2021/10/17 04:19:15;;;;;;;1999.90;999.90;;;;;;;4.51;49.87;101528.75;5044454;27;100584;-72
2021/10/17 04:21:44;;;;;;;1999.90;999.90;;;;;;;4.52;50.06;101522.69;5046702;27;97247;-71
2021/10/17 04:24:12;;;;;;;1999.90;999.90;;;;;;;4.54;50.11;101526.28;5066319;27;97196;-73
2021/10/17 04:26:40;;;;;;;1999.90;999.90;;;;;;;4.56;49.91;101517.66;5047248;27;101037;-72
2021/10/17 04:29:11;;;;;;;1999.90;999.90;;;;;;;4.53;49.97;101521.84;5049394;27;99140;-73
2021/10/17 04:31:38;;;;;;;1999.90;999.90;;;;;;;4.59;49.88;101524.84;5059540;27;97083;-72
2021/10/17 04:34:06;;;;;;;1999.90;999.90;;;;;;;4.59;50.02;101512.56;5048410;27;97712;-71
2021/10/17 04:36:34;;;;;;;1999.90;999.90;;;;;;;4.59;49.86;101517.81;5049395;27;102258;-72
2021/10/17 04:39:05;;;;;;;1999.90;999.90;;;;;;;4.59;49.81;101509.03;5043463;27;98720;-74
2021/10/17 04:41:33;;;;;;;1999.90;999.90;;;;;;;4.59;50.04;101519.56;5083765;27;97211;-71
2021/10/17 04:44:01;;;;;;;1999.90;999.90;;;;;;;4.57;49.85;101514.19;5067685;27;97762;-73
2021/10/17 04:46:29;;;;;;;1999.90;999.90;;;;;;;4.53;50.00;101512.22;5064196;27;97728;-74
2021/10/17 04:48:57;;;;;;;1999.90;999.90;;;;;;;4.51;50.08;101520.84;5047546;27;99478;-73
2021/10/17 04:51:25;;;;;;;1999.90;999.90;;;;;;;4.47;49.89;101516.22;5059672;27;96973;-72
2021/10/17 04:53:52;;;;;;;1999.90;999.90;;;;;;;4.45;50.03;101520.50;5042973;27;96812;-74
2021/10/17 04:56:22;;;;;;;1999.90;999.90;;;;;;;4.41;50.05;101522.06;5058890;27;97608;-74
2021/10/17 04:58:50;;;;;;;1999.90;999.90;;;;;;;4.40;49.79;101519.34;5045263;27;100677;-72
2021/10/17 05:01:18;;;;;;;1999.90;999.90;;;;;;;4.37;50.25;101516.53;5048259;27;97417;-73
2021/10/17 05:03:46;;;;;;;1999.90;999.90;;;;;;;4.36;50.02;101523.53;5045394;27;97045;-72
2021/10/17 05:06:14;;;;;;;1999.90;999.90;;;;;;;4.35;50.28;101520.81;5036231;27;100739;-72
2021/10/17 05:08:42;;;;;;;1999.90;999.90;;;;;;;4.33;50.34;101512.81;5042086;27;100514;-73
2021/10/17 05:11:11;;;;;;;1999.90;999.90;;;;;;;4.35;50.23;101526.06;5039948;27;97180;-74
2021/10/17 05:13:40;;;;;;;1999.90;999.90;;;;;;;4.32;50.21;101520.63;5048856;27;97776;-75
2021/10/17 05:16:08;;;;;;;1999.90;999.90;;;;;;;4.31;50.27;101529.34;5043230;27;102110;-72
2021/10/17 05:18:36;;;;;;;1999.90;999.90;;;;;;;4.30;50.15;101530.19;5044827;27;99054;-72
2021/10/17 05:21:04;;;;;;;1999.90;999.90;;;;;;;4.31;50.06;101531.97;5061513;27;98182;-73
2021/10/17 05:23:32;;;;;;;1999.90;999.90;;;;;;;4.30;50.25;101530.19;5042060;27;97060;-73
2021/10/17 05:26:01;;;;;;;1999.90;999.90;;;;;;;4.30;50.23;101519.63;5057159;27;98110;-74
2021/10/17 05:28:29;;;;;;;1999.90;999.90;;;;;;;4.28;50.40;101524.78;5044102;27;100625;-72
2021/10/17 05:31:03;;;;;;;1999.90;999.90;;;;;;;4.24;50.28;101522.81;5044023;27;97533;-74
2021/10/17 05:33:36;;;;;;;1999.90;999.90;;;;;;;4.21;49.88;101526.19;5039651;27;97052;-72
2021/10/17 05:36:05;;;;;;;1999.90;999.90;;;;;;;4.18;50.32;101527.72;5061378;27;98925;-73
2021/10/17 05:38:33;;;;;;;1999.90;999.90;;;;;;;4.13;50.60;101530.06;5043851;27;98815;-72
2021/10/17 05:41:02;;;;;;;1999.90;999.90;;;;;;;4.11;50.40;101523.84;5055615;27;96987;-72
2021/10/17 05:43:31;;;;;;;1999.90;999.90;;;;;;;4.11;50.33;101529.09;5054736;27;97243;-72
2021/10/17 05:45:59;;;;;;;1999.90;999.90;;;;;;;4.11;50.60;101531.75;5041899;27;99485;-73
2021/10/17 05:48:29;;;;;;;1999.90;999.90;;;;;;;4.12;50.39;101541.44;5056321;27;97558;-74
2021/10/17 05:50:58;;;;;;;1999.90;999.90;;;;;;;4.11;50.38;101538.72;5059284;27;96827;-73
2021/10/17 05:53:26;;;;;;;1999.90;999.90;;;;;;;4.12;50.32;101538.81;5042084;27;97314;-72
2021/10/17 05:55:54;;;;;;;1999.90;999.90;;;;;;;4.14;50.39;101541.53;5040093;27;97888;-73
2021/10/17 05:58:22;;;;;;;1999.90;999.90;;;;;;;4.16;50.19;101539.91;5059804;27;97623;-73
2021/10/17 06:00:50;;;;;;;1999.90;999.90;;;;;;;4.20;50.34;101547.16;5041513;27;97338;-71
2021/10/17 06:03:18;;;;;;;1999.90;999.90;;;;;;;4.24;50.42;101554.44;5040139;27;97153;-73
2021/10/17 06:06:16;;;;;;;1999.90;999.90;;;;;;;4.27;50.35;101557.25;5021135;27;99481;-73
2021/10/17 06:08:46;;;;;;;1999.90;999.90;;;;;;;4.31;50.24;101566.22;5039562;27;99234;-75
2021/10/17 06:11:14;;;;;;;1999.90;999.90;;;;;;;4.32;50.30;101553.13;5033671;27;97701;-73
2021/10/17 06:13:42;;;;;;;1999.90;999.90;;;;;;;4.36;50.37;101556.84;5047055;27;97210;-73
2021/10/17 06:16:10;;;;;;;1999.90;999.90;;;;;;;4.38;50.27;101549.94;5046594;27;99653;-73
2021/10/17 06:18:38;;;;;;;1999.90;999.90;;;;;;;4.39;50.22;101560.56;5042993;27;99315;-72
2021/10/17 06:21:07;;;;;;;1999.90;999.90;;;;;;;4.40;50.15;101559.78;5045932;27;96833;-73
2021/10/17 06:23:37;;;;;;;1999.90;999.90;;;;;;;4.40;50.57;101561.50;5055419;27;97136;-73
2021/10/17 06:26:05;;;;;;;1999.90;999.90;;;;;;;4.40;50.08;101567.69;5036020;27;98616;-72
2021/10/17 06:28:34;;;;;;;1999.90;999.90;;;;;;;4.42;50.10;101565.13;5035463;27;99845;-70
2021/10/17 06:31:02;;;;;;;1999.90;999.90;;;;;;;4.42;50.07;101565.13;5051914;27;99183;-72
2021/10/17 06:33:33;;;;;;;1999.90;999.90;;;;;;;4.43;50.16;101580.09;5041801;27;97081;-69
2021/10/17 06:36:01;;;;;;;1999.90;999.90;;;;;;;4.40;50.14;101572.03;5033912;27;98850;-71
2021/10/17 06:38:29;;;;;;;1999.90;999.90;;;;;;;4.40;50.27;101577.31;5047954;27;98901;-74
2021/10/17 06:40:58;;;;;;;1999.90;999.90;;;;;;;4.39;50.20;101572.88;5058336;27;98829;-73
2021/10/17 06:43:26;;;;;;;1999.90;999.90;;;;;;;4.39;50.26;101581.66;5066567;27;97416;-72
2021/10/17 06:46:09;;;;;;;1999.90;999.90;;;;;;;4.39;50.33;101581.66;5051578;27;99948;-71
2021/10/17 06:48:38;;;;;;;1999.90;999.90;;;;;;;4.38;50.19;101584.22;5068754;27;97270;-72
2021/10/17 06:51:06;;;;;;;1999.90;999.90;;;;;;;4.39;50.37;101583.41;5052544;27;97893;-73
2021/10/17 06:53:35;;;;;;;1999.90;999.90;;;;;;;4.38;50.38;101584.22;5050592;27;96930;-71
2021/10/17 06:56:07;;;;;;;1999.90;999.90;;;;;;;4.38;50.17;101584.22;5039357;27;99344;-72
2021/10/17 06:58:35;;;;;;;1999.90;999.90;;;;;;;4.36;50.22;101586.75;5035531;27;98946;-72
2021/10/17 07:01:03;;;;;;;1999.90;999.90;;;;;;;4.37;50.36;101582.41;5059599;27;99100;-72
2021/10/17 07:03:32;;;;;;;1999.90;999.90;;;;;;;4.33;50.26;101580.41;5045450;27;96989;-74
2021/10/17 07:06:14;;;;;;;1999.90;999.90;;;;;;;4.34;50.15;101580.47;5039831;27;101204;-72
2021/10/17 07:08:48;;;;;;;1999.90;999.90;;;;;;;4.33;50.17;101583.94;5049132;27;99285;-73
2021/10/17 07:11:40;;;;;;;1999.90;999.90;;;;;;;4.35;50.32;101581.41;5053151;27;97470;-70
2021/10/17 07:14:16;;;;;;;1999.90;999.90;;;;;;;4.35;50.21;101581.41;5051333;27;97233;-70
2021/10/17 07:17:06;;;;;;;1999.90;999.90;;;;;;;4.33;50.44;101580.41;5055408;27;99480;-76
2021/10/17 07:19:36;;;;;;;1999.90;999.90;;;;;;;4.33;50.45;101580.41;5058766;27;97885;-71
2021/10/17 07:22:05;;;;;;;1999.90;999.90;;;;;;;4.33;50.34;101580.41;5055412;27;99134;-75
2021/10/17 07:24:37;;;;;;;1999.90;999.90;;;;;;;4.34;50.27;101592.75;5063463;27;97248;-71
2021/10/17 07:27:06;;;;;;;1999.90;999.90;;;;;;;4.33;50.30;101596.22;5045248;27;100440;-74
2021/10/17 07:29:35;;;;;;;1999.90;999.90;;;;;;;4.30;50.25;101590.78;5046655;27;99277;-74
2021/10/17 07:32:03;;;;;;;1999.90;999.90;;;;;;;4.29;50.23;101602.09;5047253;27;97372;-72
2021/10/17 07:34:31;;;;;;;1999.90;999.90;;;;;;;4.26;50.31;101599.31;5066466;27;98373;-72
2021/10/17 07:36:59;;;;;;;1999.90;999.90;;;;;;;4.23;50.39;101600.00;5046971;27;100123;-73
2021/10/17 07:39:32;;;;;;;1999.90;999.90;;;;;;;4.23;50.25;101603.56;5047820;27;97522;-72
2021/10/17 07:42:02;;;;;;;1999.90;999.90;;;;;;;4.27;50.41;101603.75;5068218;27;97123;-72
2021/10/17 07:44:35;;;;;;;1999.90;999.90;;;;;;;4.27;50.49;101601.09;5082528;27;96878;-73
2021/10/17 07:47:14;;;;;;;1999.90;999.90;;;;;;;4.26;50.37;101605.50;5070522;27;98716;-75
2021/10/17 07:50:05;;;;;;;1999.90;999.90;;;;;;;4.26;50.11;101602.84;5044401;27;98428;-74
2021/10/17 07:52:38;;;;;;;1999.90;999.90;;;;;;;4.31;50.19;101603.09;5047765;27;97086;-72
2021/10/17 07:55:16;;;;;;;1999.90;999.90;;;;;;;4.34;50.33;101605.91;5056525;27;97199;-74
2021/10/17 07:57:53;;;;;;;1999.90;999.90;;;;;;;4.36;50.21;101601.66;5042713;27;99082;-73
2021/10/17 08:00:23;;;;;;;1999.90;999.90;;;;;;;4.39;50.18;101601.84;5046940;27;99828;-74
2021/10/17 08:03:12;;;;;;;1999.90;999.90;;;;;;;4.40;50.24;101598.38;5061173;27;98895;-72
2021/10/17 08:05:42;;;;;;;1999.90;999.90;;;;;;;4.42;50.15;101604.66;5045965;27;97226;-73
2021/10/17 08:08:15;;;;;;;1999.90;999.90;;;;;;;4.45;50.07;101599.56;5046717;27;99708;-72
2021/10/17 08:10:43;;;;;;;1999.90;999.90;;;;;;;4.46;50.17;101598.75;5042563;27;98584;-74
2021/10/17 08:13:12;;;;;;;1999.90;999.90;;;;;;;4.50;50.11;101595.47;5046657;27;96824;-74
2021/10/17 08:15:46;;;;;;;1999.90;999.90;;;;;;;4.51;50.00;101599.91;5061149;27;96878;-73
2021/10/17 08:18:15;;;;;;;1999.90;999.90;;;;;;;4.51;49.92;101600.84;5048510;27;99896;-72
2021/10/17 08:20:53;;;;;;;1999.90;999.90;;;;;;;4.54;49.93;101586.91;5044315;27;100633;-74
2021/10/17 08:23:21;;;;;;;1999.90;999.90;;;;;;;4.58;49.91;101581.00;5048451;27;97893;-74
2021/10/17 08:25:50;;;;;;;1999.90;999.90;;;;;;;4.61;50.12;101590.00;5045795;27;97284;-74
2021/10/17 08:28:19;;;;;;;1999.90;999.90;;;;;;;4.64;49.77;101587.56;5049393;27;99150;-75
2021/10/17 08:30:50;;;;;;;1999.90;999.90;;;;;;;4.65;49.79;101583.16;5041986;27;99223;-70
2021/10/17 08:33:19;;;;;;;1999.90;999.90;;;;;;;4.68;49.76;101576.34;5065872;27;98815;-73
2021/10/17 08:35:48;;;;;;;1999.90;999.90;;;;;;;4.70;49.64;101566.78;5039595;27;97223;-71
2021/10/17 08:38:16;;;;;;;1999.90;999.90;;;;;;;4.75;49.62;101561.81;5060656;27;97430;-72
2021/10/17 08:40:50;;;;;;;1999.90;999.90;;;;;;;4.77;49.57;101554.88;5048123;27;99326;-72
2021/10/17 08:43:18;;;;;;;1999.90;999.90;;;;;;;4.79;49.73;101563.78;5060595;27;97275;-73
2021/10/17 08:45:56;;;;;;;1999.90;999.90;;;;;;;4.82;49.70;101569.22;5045996;27;96905;-73
2021/10/17 08:48:35;;;;;;;1999.90;999.90;;;;;;;4.85;49.62;101580.84;5062987;27;97845;-71
2021/10/17 08:51:06;;;;;;;1999.90;999.90;;;;;;;4.91;49.70;101586.50;5057600;27;98502;-73
2021/10/17 08:53:55;;;;;;;1999.90;999.90;;;;;;;5.23;49.06;101594.50;5064087;27;98579;-74
2021/10/17 08:56:28;;;;;;;1999.90;999.90;;;;;;;5.16;49.29;101594.06;5045762;27;96797;-75
2021/10/17 08:58:59;;;;;;;1999.90;999.90;;;;;;;5.17;49.46;101606.44;5061102;27;98887;-74
2021/10/17 09:01:50;;;;;;;1999.90;999.90;;;;;;;5.24;49.12;101605.97;5047322;27;99442;-75
2021/10/17 09:04:26;;;;;;;1999.90;999.90;;;;;;;5.31;48.97;101609.84;5061916;27;96902;-72
2021/10/17 09:07:16;;;;;;;1999.90;999.90;;;;;;;5.35;48.92;101596.91;5056467;27;97753;-73
2021/10/17 09:10:11;;;;;;;1999.90;999.90;;;;;;;5.40;49.36;101603.34;5038017;27;99492;-72
2021/10/17 09:12:42;;;;;;;1999.90;999.90;;;;;;;5.47;48.80;101607.22;5063030;27;97753;-73
2021/10/17 09:15:23;;;;;;;1999.90;999.90;;;;;;;5.48;48.18;101606.41;5050405;27;97125;-72
2021/10/17 09:18:17;;;;;;;1999.90;999.90;;;;;;;5.52;48.73;101601.34;5048407;27;96762;-71
2021/10/17 09:21:02;;;;;;;1999.90;999.90;;;;;;;5.54;48.56;101615.56;5064950;27;99171;-74
2021/10/17 09:23:33;;;;;;;1999.90;999.90;;;;;;;5.58;48.78;101617.53;5060133;27;97885;-74
2021/10/17 09:26:08;;;;;;;1999.90;999.90;;;;;;;5.61;48.43;101612.41;5043711;27;97521;-75
2021/10/17 09:28:37;;;;;;;1999.90;999.90;;;;;;;5.68;48.88;101609.31;5056902;27;97627;-74
2021/10/17 09:31:07;;;;;;;1999.90;999.90;;;;;;;5.73;48.96;101612.19;5049164;27;100562;-72
2021/10/17 09:33:44;;;;;;;1999.90;999.90;;;;;;;5.78;48.61;101610.69;5074620;27;96893;-72
2021/10/17 09:36:17;;;;;;;1999.90;999.90;;;;;;;5.79;48.24;101613.44;5059099;27;97872;-75
2021/10/17 09:39:11;;;;;;;1999.90;999.90;;;;;;;5.83;48.31;101615.38;5062708;27;97238;-74
2021/10/17 09:41:59;;;;;;;1999.90;999.90;;;;;;;5.87;48.75;101614.72;5056788;27;99162;-76
2021/10/17 09:44:37;;;;;;;1999.90;999.90;;;;;;;5.94;48.31;101621.25;5037885;27;97640;-82
2021/10/17 09:47:05;;;;;;;1999.90;999.90;;;;;;;6.00;48.25;101621.56;5057731;27;96923;-73
2021/10/17 09:49:35;;;;;;;1999.90;999.90;;;;;;;6.04;48.29;101627.09;5060472;27;97552;-73
2021/10/17 09:52:15;;;;;;;1999.90;999.90;;;;;;;6.03;47.00;101624.41;5059628;27;100653;-72
2021/10/17 09:54:48;;;;;;;1999.90;999.90;;;;;;;6.05;48.02;101623.63;5056184;27;100620;-74
2021/10/17 09:57:16;;;;;;;1999.90;999.90;;;;;;;6.09;48.33;101627.34;5049426;27;98134;-75
2021/10/17 09:59:45;;;;;;;1999.90;999.90;;;;;;;6.09;48.33;101635.25;5034809;27;98079;-74
2021/10/17 10:02:14;;;;;;;1999.90;999.90;;;;;;;6.13;48.11;101637.25;5064402;27;99585;-74
2021/10/17 10:04:47;;;;;;;1999.90;999.90;;;;;;;6.14;48.02;101628.50;5052268;27;98547;-77
2021/10/17 10:07:22;;;;;;;1999.90;999.90;;;;;;;6.14;47.46;101632.03;5033510;27;98003;-74
2021/10/17 10:09:50;;;;;;;1999.90;999.90;;;;;;;6.19;47.97;101632.28;5061301;27;97586;-76
2021/10/17 10:12:19;;;;;;;1999.90;999.90;;;;;;;6.19;47.61;101632.28;5055107;27;100388;-74
2021/10/17 10:14:48;;;;;;;1999.90;999.90;;;;;;;6.23;47.84;101631.63;5055312;27;99791;-73
2021/10/17 10:17:19;;;;;;;1999.90;999.90;;;;;;;6.27;47.76;101630.09;5047578;27;97488;-75
2021/10/17 10:19:58;;;;;;;1999.90;999.90;;;;;;;6.25;47.61;101625.56;5056882;27;97033;-72
2021/10/17 10:22:28;;;;;;;1999.90;999.90;;;;;;;6.32;47.66;101618.00;5082506;27;99378;-74
2021/10/17 10:24:57;;;;;;;1999.90;999.90;;;;;;;6.38;47.89;101624.50;5061184;27;97579;-70
2021/10/17 10:27:25;;;;;;;1999.90;999.90;;;;;;;6.43;47.79;101622.09;5057987;27;96956;-75
2021/10/17 10:30:21;;;;;;;1999.90;999.90;;;;;;;6.47;46.96;101629.38;5058223;27;97916;-73
2021/10/17 10:33:15;;;;;;;1999.90;999.90;;;;;;;6.50;46.59;101629.53;5041176;27;99795;-74
2021/10/17 10:36:12;;;;;;;1999.90;999.90;;;;;;;6.53;46.89;101619.09;5068729;27;97753;-73
2021/10/17 10:39:10;;;;;;;1999.90;999.90;;;;;;;6.59;47.10;101628.25;5043768;27;98418;-73
2021/10/17 10:41:56;;;;;;;1999.90;999.90;;;;;;;6.65;47.51;101620.59;5061807;27;97514;-74
2021/10/17 10:44:26;;;;;;;1999.90;999.90;;;;;;;6.70;47.71;101615.56;5048143;27;98941;-77
2021/10/17 10:46:56;;;;;;;1999.90;999.90;;;;;;;6.76;47.27;101616.75;5055069;27;99618;-75
2021/10/17 10:49:44;;;;;;;1999.90;999.90;;;;;;;6.79;47.01;101602.78;5061965;27;98203;-74
2021/10/17 10:52:43;;;;;;;1999.90;999.90;;;;;;;6.79;46.61;101602.78;5064145;27;96871;-74
2021/10/17 10:55:45;;;;;;;1999.90;999.90;;;;;;;6.83;46.86;101595.09;5029725;27;102163;-75
2021/10/17 10:58:24;;;;;;;1999.90;999.90;;;;;;;6.87;47.01;101588.22;5060449;27;99417;-75
2021/10/17 11:00:53;;;;;;;1999.90;999.90;;;;;;;6.92;47.39;101586.69;5056272;27;97201;-75
2021/10/17 11:03:24;;;;;;;1999.90;999.90;;;;;;;6.93;47.46;101575.25;5044518;27;97316;-75
2021/10/17 11:06:17;;;;;;;1999.90;999.90;;;;;;;6.93;47.34;101581.47;5062038;27;97842;-74
2021/10/17 11:09:21;;;;;;;1999.90;999.90;;;;;;;6.99;47.18;101587.06;5056691;27;97604;-73
2021/10/17 11:11:49;;;;;;;1999.90;999.90;;;;;;;7.06;47.48;101596.19;5049336;27;96724;-74